sensor_id;sensor_type;location;lat;lon;timestamp;P1;durP1;ratioP1;P2;durP2;ratioP2
47713;SDS011;33475;46.614;13.888;2024-02-16T00:00:02;9.85;;;6.78;;
47713;SDS011;33475;46.614;13.888;2024-02-16T00:02:30;14.57;;;9.00;;
47713;SDS011;33475;46.614;13.888;2024-02-16T00:04:57;17.17;;;7.70;;
47713;SDS011;33475;46.614;13.888;2024-02-16T00:07:24;13.38;;;6.97;;
47713;SDS011;33475;46.614;13.888;2024-02-16T00:09:51;14.20;;;8.27;;
47713;SDS011;33475;46.614;13.888;2024-02-16T00:12:17;15.05;;;9.43;;
47713;SDS011;33475;46.614;13.888;2024-02-16T00:14:44;19.60;;;10.68;;
47713;SDS011;33475;46.614;13.888;2024-02-16T00:17:11;10.43;;;7.80;;
47713;SDS011;33475;46.614;13.888;2024-02-16T00:19:37;11.35;;;8.05;;
47713;SDS011;33475;46.614;13.888;2024-02-16T00:22:04;10.15;;;4.85;;
47713;SDS011;33475;46.614;13.888;2024-02-16T00:24:32;8.95;;;4.80;;
47713;SDS011;33475;46.614;13.888;2024-02-16T00:26:59;10.20;;;6.68;;
47713;SDS011;33475;46.614;13.888;2024-02-16T00:29:25;13.30;;;6.05;;
47713;SDS011;33475;46.614;13.888;2024-02-16T00:31:51;7.10;;;4.68;;
47713;SDS011;33475;46.614;13.888;2024-02-16T00:34:18;8.85;;;5.13;;
47713;SDS011;33475;46.614;13.888;2024-02-16T00:36:45;8.02;;;5.18;;
47713;SDS011;33475;46.614;13.888;2024-02-16T00:39:11;11.90;;;5.20;;
47713;SDS011;33475;46.614;13.888;2024-02-16T00:41:37;8.32;;;5.03;;
47713;SDS011;33475;46.614;13.888;2024-02-16T00:44:04;7.90;;;5.00;;
47713;SDS011;33475;46.614;13.888;2024-02-16T00:46:30;10.15;;;5.25;;
47713;SDS011;33475;46.614;13.888;2024-02-16T00:48:57;7.75;;;4.68;;
47713;SDS011;33475;46.614;13.888;2024-02-16T00:51:23;6.97;;;4.50;;
47713;SDS011;33475;46.614;13.888;2024-02-16T00:53:51;9.48;;;4.05;;
47713;SDS011;33475;46.614;13.888;2024-02-16T00:56:18;8.02;;;4.55;;
47713;SDS011;33475;46.614;13.888;2024-02-16T00:58:44;9.77;;;5.30;;
47713;SDS011;33475;46.614;13.888;2024-02-16T01:01:10;11.50;;;4.40;;
47713;SDS011;33475;46.614;13.888;2024-02-16T01:03:40;9.30;;;4.75;;
47713;SDS011;33475;46.614;13.888;2024-02-16T01:06:07;9.30;;;4.95;;
47713;SDS011;33475;46.614;13.888;2024-02-16T01:08:35;9.63;;;4.65;;
47713;SDS011;33475;46.614;13.888;2024-02-16T01:11:01;9.73;;;5.00;;
47713;SDS011;33475;46.614;13.888;2024-02-16T01:13:28;8.38;;;5.50;;
47713;SDS011;33475;46.614;13.888;2024-02-16T01:15:54;11.73;;;4.57;;
47713;SDS011;33475;46.614;13.888;2024-02-16T01:18:20;5.47;;;4.03;;
47713;SDS011;33475;46.614;13.888;2024-02-16T01:20:46;10.95;;;4.82;;
47713;SDS011;33475;46.614;13.888;2024-02-16T01:23:13;4.93;;;3.72;;
47713;SDS011;33475;46.614;13.888;2024-02-16T01:25:39;10.15;;;4.45;;
47713;SDS011;33475;46.614;13.888;2024-02-16T01:28:05;10.90;;;4.35;;
47713;SDS011;33475;46.614;13.888;2024-02-16T01:30:31;6.57;;;4.30;;
47713;SDS011;33475;46.614;13.888;2024-02-16T01:32:57;6.03;;;4.18;;
47713;SDS011;33475;46.614;13.888;2024-02-16T01:35:23;6.22;;;4.30;;
47713;SDS011;33475;46.614;13.888;2024-02-16T01:37:50;6.35;;;4.70;;
47713;SDS011;33475;46.614;13.888;2024-02-16T01:40:16;6.65;;;4.75;;
47713;SDS011;33475;46.614;13.888;2024-02-16T01:42:52;13.27;;;4.13;;
47713;SDS011;33475;46.614;13.888;2024-02-16T01:45:18;7.85;;;4.20;;
47713;SDS011;33475;46.614;13.888;2024-02-16T01:47:44;5.88;;;3.97;;
47713;SDS011;33475;46.614;13.888;2024-02-16T01:50:12;6.65;;;4.40;;
47713;SDS011;33475;46.614;13.888;2024-02-16T01:52:40;8.75;;;4.43;;
47713;SDS011;33475;46.614;13.888;2024-02-16T01:55:06;9.73;;;4.70;;
47713;SDS011;33475;46.614;13.888;2024-02-16T01:57:35;13.68;;;4.03;;
47713;SDS011;33475;46.614;13.888;2024-02-16T02:00:02;17.92;;;5.25;;
47713;SDS011;33475;46.614;13.888;2024-02-16T02:02:28;11.95;;;4.95;;
47713;SDS011;33475;46.614;13.888;2024-02-16T02:04:55;9.80;;;4.88;;
47713;SDS011;33475;46.614;13.888;2024-02-16T02:07:24;9.35;;;4.20;;
47713;SDS011;33475;46.614;13.888;2024-02-16T02:09:54;14.88;;;4.22;;
47713;SDS011;33475;46.614;13.888;2024-02-16T02:12:20;7.05;;;4.20;;
47713;SDS011;33475;46.614;13.888;2024-02-16T02:14:50;8.20;;;4.32;;
47713;SDS011;33475;46.614;13.888;2024-02-16T02:17:17;7.93;;;4.00;;
47713;SDS011;33475;46.614;13.888;2024-02-16T02:19:47;9.10;;;3.97;;
47713;SDS011;33475;46.614;13.888;2024-02-16T02:22:16;7.10;;;3.90;;
47713;SDS011;33475;46.614;13.888;2024-02-16T02:24:43;6.38;;;4.10;;
47713;SDS011;33475;46.614;13.888;2024-02-16T02:27:11;6.97;;;4.35;;
47713;SDS011;33475;46.614;13.888;2024-02-16T02:29:38;6.28;;;4.20;;
47713;SDS011;33475;46.614;13.888;2024-02-16T02:32:04;10.20;;;4.80;;
47713;SDS011;33475;46.614;13.888;2024-02-16T02:34:31;7.13;;;4.40;;
47713;SDS011;33475;46.614;13.888;2024-02-16T02:36:57;15.02;;;3.95;;
47713;SDS011;33475;46.614;13.888;2024-02-16T02:39:23;7.35;;;4.03;;
47713;SDS011;33475;46.614;13.888;2024-02-16T02:41:49;9.82;;;4.13;;
47713;SDS011;33475;46.614;13.888;2024-02-16T02:44:16;5.88;;;4.00;;
47713;SDS011;33475;46.614;13.888;2024-02-16T02:46:42;6.72;;;3.90;;
47713;SDS011;33475;46.614;13.888;2024-02-16T02:49:08;8.13;;;4.03;;
47713;SDS011;33475;46.614;13.888;2024-02-16T02:51:34;6.72;;;4.07;;
47713;SDS011;33475;46.614;13.888;2024-02-16T02:54:00;8.85;;;4.32;;
47713;SDS011;33475;46.614;13.888;2024-02-16T02:56:26;12.98;;;4.38;;
47713;SDS011;33475;46.614;13.888;2024-02-16T02:58:53;10.63;;;3.70;;
47713;SDS011;33475;46.614;13.888;2024-02-16T03:01:19;6.10;;;4.22;;
47713;SDS011;33475;46.614;13.888;2024-02-16T03:03:45;11.80;;;3.92;;
47713;SDS011;33475;46.614;13.888;2024-02-16T03:06:12;6.68;;;3.97;;
47713;SDS011;33475;46.614;13.888;2024-02-16T03:08:38;9.13;;;3.72;;
47713;SDS011;33475;46.614;13.888;2024-02-16T03:11:05;4.38;;;3.40;;
47713;SDS011;33475;46.614;13.888;2024-02-16T03:13:31;6.15;;;4.03;;
47713;SDS011;33475;46.614;13.888;2024-02-16T03:15:58;6.82;;;3.80;;
47713;SDS011;33475;46.614;13.888;2024-02-16T03:18:24;6.32;;;3.45;;
47713;SDS011;33475;46.614;13.888;2024-02-16T03:20:50;5.57;;;3.80;;
47713;SDS011;33475;46.614;13.888;2024-02-16T03:23:16;5.05;;;3.80;;
47713;SDS011;33475;46.614;13.888;2024-02-16T03:25:43;5.57;;;3.97;;
47713;SDS011;33475;46.614;13.888;2024-02-16T03:28:12;7.07;;;4.30;;
47713;SDS011;33475;46.614;13.888;2024-02-16T03:30:39;14.32;;;4.55;;
47713;SDS011;33475;46.614;13.888;2024-02-16T03:33:05;9.38;;;4.13;;
47713;SDS011;33475;46.614;13.888;2024-02-16T03:35:31;7.15;;;4.53;;
47713;SDS011;33475;46.614;13.888;2024-02-16T03:37:57;5.45;;;4.65;;
47713;SDS011;33475;46.614;13.888;2024-02-16T03:40:24;7.88;;;4.97;;
47713;SDS011;33475;46.614;13.888;2024-02-16T03:42:51;6.82;;;4.45;;
47713;SDS011;33475;46.614;13.888;2024-02-16T03:45:17;9.40;;;4.65;;
47713;SDS011;33475;46.614;13.888;2024-02-16T03:47:44;5.72;;;4.28;;
47713;SDS011;33475;46.614;13.888;2024-02-16T03:50:10;6.10;;;4.15;;
47713;SDS011;33475;46.614;13.888;2024-02-16T03:52:37;7.65;;;4.55;;
47713;SDS011;33475;46.614;13.888;2024-02-16T03:55:03;7.35;;;4.10;;
47713;SDS011;33475;46.614;13.888;2024-02-16T03:57:30;7.75;;;4.22;;
47713;SDS011;33475;46.614;13.888;2024-02-16T03:59:57;7.93;;;3.90;;
47713;SDS011;33475;46.614;13.888;2024-02-16T04:02:24;4.78;;;3.20;;
47713;SDS011;33475;46.614;13.888;2024-02-16T04:04:50;7.63;;;3.67;;
47713;SDS011;33475;46.614;13.888;2024-02-16T04:07:17;5.38;;;3.38;;
47713;SDS011;33475;46.614;13.888;2024-02-16T04:09:43;5.07;;;3.53;;
47713;SDS011;33475;46.614;13.888;2024-02-16T04:12:09;6.47;;;4.55;;
47713;SDS011;33475;46.614;13.888;2024-02-16T04:14:35;5.80;;;3.83;;
47713;SDS011;33475;46.614;13.888;2024-02-16T04:17:01;7.40;;;3.67;;
47713;SDS011;33475;46.614;13.888;2024-02-16T04:19:28;5.85;;;3.75;;
47713;SDS011;33475;46.614;13.888;2024-02-16T04:21:55;5.47;;;3.65;;
47713;SDS011;33475;46.614;13.888;2024-02-16T04:24:21;5.78;;;4.00;;
47713;SDS011;33475;46.614;13.888;2024-02-16T04:26:47;5.28;;;4.10;;
47713;SDS011;33475;46.614;13.888;2024-02-16T04:29:14;5.72;;;3.55;;
47713;SDS011;33475;46.614;13.888;2024-02-16T04:31:41;7.43;;;4.60;;
47713;SDS011;33475;46.614;13.888;2024-02-16T04:34:10;13.30;;;4.80;;
47713;SDS011;33475;46.614;13.888;2024-02-16T04:36:36;9.27;;;4.80;;
47713;SDS011;33475;46.614;13.888;2024-02-16T04:39:03;4.93;;;4.05;;
47713;SDS011;33475;46.614;13.888;2024-02-16T04:41:29;7.10;;;4.32;;
47713;SDS011;33475;46.614;13.888;2024-02-16T04:43:55;8.40;;;4.97;;
47713;SDS011;33475;46.614;13.888;2024-02-16T04:46:21;6.22;;;4.15;;
47713;SDS011;33475;46.614;13.888;2024-02-16T04:48:47;7.25;;;4.55;;
47713;SDS011;33475;46.614;13.888;2024-02-16T04:51:14;7.70;;;4.10;;
47713;SDS011;33475;46.614;13.888;2024-02-16T04:53:40;7.25;;;3.70;;
47713;SDS011;33475;46.614;13.888;2024-02-16T04:56:06;6.13;;;4.03;;
47713;SDS011;33475;46.614;13.888;2024-02-16T04:58:32;7.30;;;4.55;;
47713;SDS011;33475;46.614;13.888;2024-02-16T05:00:58;4.28;;;3.78;;
47713;SDS011;33475;46.614;13.888;2024-02-16T05:03:25;7.32;;;3.95;;
47713;SDS011;33475;46.614;13.888;2024-02-16T05:05:51;6.22;;;4.25;;
47713;SDS011;33475;46.614;13.888;2024-02-16T05:08:18;8.15;;;4.07;;
47713;SDS011;33475;46.614;13.888;2024-02-16T05:10:44;12.82;;;5.30;;
47713;SDS011;33475;46.614;13.888;2024-02-16T05:13:10;10.02;;;6.00;;
47713;SDS011;33475;46.614;13.888;2024-02-16T05:15:37;11.60;;;5.82;;
47713;SDS011;33475;46.614;13.888;2024-02-16T05:18:03;12.40;;;6.90;;
47713;SDS011;33475;46.614;13.888;2024-02-16T05:20:29;17.90;;;8.38;;
47713;SDS011;33475;46.614;13.888;2024-02-16T05:22:55;22.85;;;10.00;;
47713;SDS011;33475;46.614;13.888;2024-02-16T05:25:22;24.90;;;10.18;;
47713;SDS011;33475;46.614;13.888;2024-02-16T05:27:48;39.30;;;11.40;;
47713;SDS011;33475;46.614;13.888;2024-02-16T05:30:15;42.13;;;9.63;;
47713;SDS011;33475;46.614;13.888;2024-02-16T05:32:41;29.13;;;7.43;;
47713;SDS011;33475;46.614;13.888;2024-02-16T05:35:08;42.10;;;7.25;;
47713;SDS011;33475;46.614;13.888;2024-02-16T05:37:38;15.57;;;6.80;;
47713;SDS011;33475;46.614;13.888;2024-02-16T05:40:10;42.90;;;7.68;;
47713;SDS011;33475;46.614;13.888;2024-02-16T05:42:52;44.10;;;6.15;;
47713;SDS011;33475;46.614;13.888;2024-02-16T05:45:19;35.53;;;6.63;;
47713;SDS011;33475;46.614;13.888;2024-02-16T05:47:48;28.83;;;5.57;;
47713;SDS011;33475;46.614;13.888;2024-02-16T05:50:15;84.03;;;7.05;;
47713;SDS011;33475;46.614;13.888;2024-02-16T05:52:41;80.72;;;10.10;;
47713;SDS011;33475;46.614;13.888;2024-02-16T05:55:09;62.83;;;5.18;;
47713;SDS011;33475;46.614;13.888;2024-02-16T05:57:36;30.98;;;5.13;;
47713;SDS011;33475;46.614;13.888;2024-02-16T06:00:03;21.52;;;4.47;;
47713;SDS011;33475;46.614;13.888;2024-02-16T06:02:30;56.70;;;5.90;;
47713;SDS011;33475;46.614;13.888;2024-02-16T06:04:57;34.88;;;5.35;;
47713;SDS011;33475;46.614;13.888;2024-02-16T06:07:23;27.33;;;5.85;;
47713;SDS011;33475;46.614;13.888;2024-02-16T06:09:49;25.20;;;5.88;;
47713;SDS011;33475;46.614;13.888;2024-02-16T06:12:15;28.38;;;5.78;;
47713;SDS011;33475;46.614;13.888;2024-02-16T06:14:42;9.63;;;4.45;;
47713;SDS011;33475;46.614;13.888;2024-02-16T06:17:08;16.58;;;5.60;;
47713;SDS011;33475;46.614;13.888;2024-02-16T06:19:37;137.32;;;8.27;;
47713;SDS011;33475;46.614;13.888;2024-02-16T06:22:05;53.47;;;5.35;;
47713;SDS011;33475;46.614;13.888;2024-02-16T06:24:33;17.05;;;4.45;;
47713;SDS011;33475;46.614;13.888;2024-02-16T06:26:59;46.05;;;5.10;;
47713;SDS011;33475;46.614;13.888;2024-02-16T06:29:25;7.85;;;5.90;;
47713;SDS011;33475;46.614;13.888;2024-02-16T06:31:53;5.85;;;4.70;;
47713;SDS011;33475;46.614;13.888;2024-02-16T06:34:19;8.07;;;5.28;;
47713;SDS011;33475;46.614;13.888;2024-02-16T06:36:45;5.30;;;4.55;;
47713;SDS011;33475;46.614;13.888;2024-02-16T06:39:11;8.52;;;5.95;;
47713;SDS011;33475;46.614;13.888;2024-02-16T06:41:45;9.68;;;6.50;;
47713;SDS011;33475;46.614;13.888;2024-02-16T06:44:12;11.25;;;6.07;;
47713;SDS011;33475;46.614;13.888;2024-02-16T06:46:38;8.88;;;6.03;;
47713;SDS011;33475;46.614;13.888;2024-02-16T06:49:05;8.27;;;6.07;;
47713;SDS011;33475;46.614;13.888;2024-02-16T06:51:31;10.30;;;7.45;;
47713;SDS011;33475;46.614;13.888;2024-02-16T06:53:57;10.32;;;7.03;;
47713;SDS011;33475;46.614;13.888;2024-02-16T06:56:23;10.23;;;7.13;;
47713;SDS011;33475;46.614;13.888;2024-02-16T06:58:50;10.50;;;7.45;;
47713;SDS011;33475;46.614;13.888;2024-02-16T07:01:16;13.13;;;6.70;;
47713;SDS011;33475;46.614;13.888;2024-02-16T07:03:45;8.23;;;6.93;;
47713;SDS011;33475;46.614;13.888;2024-02-16T07:06:12;10.63;;;7.63;;
47713;SDS011;33475;46.614;13.888;2024-02-16T07:08:47;11.60;;;7.18;;
47713;SDS011;33475;46.614;13.888;2024-02-16T07:11:14;9.98;;;7.50;;
47713;SDS011;33475;46.614;13.888;2024-02-16T07:13:40;9.40;;;7.00;;
47713;SDS011;33475;46.614;13.888;2024-02-16T07:16:09;11.00;;;6.80;;
47713;SDS011;33475;46.614;13.888;2024-02-16T07:18:36;10.40;;;7.05;;
47713;SDS011;33475;46.614;13.888;2024-02-16T07:21:02;10.68;;;5.90;;
47713;SDS011;33475;46.614;13.888;2024-02-16T07:23:28;13.00;;;7.03;;
47713;SDS011;33475;46.614;13.888;2024-02-16T07:25:55;20.40;;;6.55;;
47713;SDS011;33475;46.614;13.888;2024-02-16T07:28:23;12.40;;;6.70;;
47713;SDS011;33475;46.614;13.888;2024-02-16T07:30:49;10.55;;;6.28;;
47713;SDS011;33475;46.614;13.888;2024-02-16T07:33:16;9.10;;;5.72;;
47713;SDS011;33475;46.614;13.888;2024-02-16T07:35:42;13.77;;;7.82;;
47713;SDS011;33475;46.614;13.888;2024-02-16T07:38:09;10.48;;;5.35;;
47713;SDS011;33475;46.614;13.888;2024-02-16T07:40:35;12.48;;;6.15;;
47713;SDS011;33475;46.614;13.888;2024-02-16T07:43:02;9.55;;;6.35;;
47713;SDS011;33475;46.614;13.888;2024-02-16T07:45:28;7.60;;;6.13;;
47713;SDS011;33475;46.614;13.888;2024-02-16T07:47:55;15.27;;;5.45;;
47713;SDS011;33475;46.614;13.888;2024-02-16T07:50:22;8.68;;;5.97;;
47713;SDS011;33475;46.614;13.888;2024-02-16T07:52:48;12.15;;;4.88;;
47713;SDS011;33475;46.614;13.888;2024-02-16T07:55:15;11.52;;;4.43;;
47713;SDS011;33475;46.614;13.888;2024-02-16T07:57:45;11.85;;;4.60;;
47713;SDS011;33475;46.614;13.888;2024-02-16T08:00:12;11.00;;;4.75;;
47713;SDS011;33475;46.614;13.888;2024-02-16T08:02:41;10.07;;;4.43;;
47713;SDS011;33475;46.614;13.888;2024-02-16T08:05:11;14.25;;;4.63;;
47713;SDS011;33475;46.614;13.888;2024-02-16T08:07:41;13.35;;;4.60;;
47713;SDS011;33475;46.614;13.888;2024-02-16T08:10:07;11.77;;;4.22;;
47713;SDS011;33475;46.614;13.888;2024-02-16T08:12:34;16.27;;;6.03;;
47713;SDS011;33475;46.614;13.888;2024-02-16T08:15:01;18.48;;;5.50;;
47713;SDS011;33475;46.614;13.888;2024-02-16T08:17:29;11.73;;;5.07;;
47713;SDS011;33475;46.614;13.888;2024-02-16T08:19:56;8.63;;;4.90;;
47713;SDS011;33475;46.614;13.888;2024-02-16T08:22:22;12.90;;;4.68;;
47713;SDS011;33475;46.614;13.888;2024-02-16T08:24:49;9.48;;;4.80;;
47713;SDS011;33475;46.614;13.888;2024-02-16T08:27:15;8.30;;;5.07;;
47713;SDS011;33475;46.614;13.888;2024-02-16T08:29:42;13.93;;;5.20;;
47713;SDS011;33475;46.614;13.888;2024-02-16T08:32:08;15.35;;;5.22;;
47713;SDS011;33475;46.614;13.888;2024-02-16T08:34:35;12.15;;;5.30;;
47713;SDS011;33475;46.614;13.888;2024-02-16T08:37:04;21.02;;;5.50;;
47713;SDS011;33475;46.614;13.888;2024-02-16T08:39:31;16.95;;;8.52;;
47713;SDS011;33475;46.614;13.888;2024-02-16T08:41:57;12.88;;;5.10;;
47713;SDS011;33475;46.614;13.888;2024-02-16T08:44:24;13.65;;;5.38;;
47713;SDS011;33475;46.614;13.888;2024-02-16T08:46:51;10.80;;;5.95;;
47713;SDS011;33475;46.614;13.888;2024-02-16T08:49:19;13.57;;;6.35;;
47713;SDS011;33475;46.614;13.888;2024-02-16T08:51:47;8.57;;;5.00;;
47713;SDS011;33475;46.614;13.888;2024-02-16T08:54:13;13.45;;;6.35;;
47713;SDS011;33475;46.614;13.888;2024-02-16T08:56:39;9.98;;;5.45;;
47713;SDS011;33475;46.614;13.888;2024-02-16T08:59:05;13.05;;;5.20;;
47713;SDS011;33475;46.614;13.888;2024-02-16T09:01:32;15.02;;;6.93;;
47713;SDS011;33475;46.614;13.888;2024-02-16T09:03:58;9.77;;;5.07;;
47713;SDS011;33475;46.614;13.888;2024-02-16T09:06:25;13.80;;;4.40;;
47713;SDS011;33475;46.614;13.888;2024-02-16T09:08:52;19.83;;;6.90;;
47713;SDS011;33475;46.614;13.888;2024-02-16T09:11:18;9.57;;;3.92;;
47713;SDS011;33475;46.614;13.888;2024-02-16T09:13:44;6.50;;;4.20;;
47713;SDS011;33475;46.614;13.888;2024-02-16T09:16:10;9.43;;;5.05;;
47713;SDS011;33475;46.614;13.888;2024-02-16T09:18:37;9.65;;;4.97;;
47713;SDS011;33475;46.614;13.888;2024-02-16T09:21:03;16.50;;;7.35;;
47713;SDS011;33475;46.614;13.888;2024-02-16T09:23:29;7.53;;;4.25;;
47713;SDS011;33475;46.614;13.888;2024-02-16T09:25:55;14.45;;;5.65;;
47713;SDS011;33475;46.614;13.888;2024-02-16T09:28:21;12.50;;;4.88;;
47713;SDS011;33475;46.614;13.888;2024-02-16T09:30:48;7.85;;;3.25;;
47713;SDS011;33475;46.614;13.888;2024-02-16T09:33:14;5.88;;;3.80;;
47713;SDS011;33475;46.614;13.888;2024-02-16T09:35:40;15.52;;;6.95;;
47713;SDS011;33475;46.614;13.888;2024-02-16T09:38:06;10.15;;;5.10;;
47713;SDS011;33475;46.614;13.888;2024-02-16T09:40:35;7.07;;;4.15;;
47713;SDS011;33475;46.614;13.888;2024-02-16T09:43:02;7.18;;;4.43;;
47713;SDS011;33475;46.614;13.888;2024-02-16T09:45:28;4.22;;;3.08;;
47713;SDS011;33475;46.614;13.888;2024-02-16T09:47:55;15.55;;;8.70;;
47713;SDS011;33475;46.614;13.888;2024-02-16T09:50:21;11.95;;;6.35;;
47713;SDS011;33475;46.614;13.888;2024-02-16T09:52:49;5.93;;;2.78;;
47713;SDS011;33475;46.614;13.888;2024-02-16T09:55:16;8.75;;;5.03;;
47713;SDS011;33475;46.614;13.888;2024-02-16T09:57:43;8.40;;;5.25;;
47713;SDS011;33475;46.614;13.888;2024-02-16T10:00:09;5.55;;;4.97;;
47713;SDS011;33475;46.614;13.888;2024-02-16T10:02:47;22.67;;;18.75;;
47713;SDS011;33475;46.614;13.888;2024-02-16T10:05:18;15.10;;;4.18;;
47713;SDS011;33475;46.614;13.888;2024-02-16T10:07:45;7.15;;;3.97;;
47713;SDS011;33475;46.614;13.888;2024-02-16T10:10:25;10.88;;;2.60;;
47713;SDS011;33475;46.614;13.888;2024-02-16T10:13:02;4.97;;;1.80;;
47713;SDS011;33475;46.614;13.888;2024-02-16T10:15:29;12.02;;;10.10;;
47713;SDS011;33475;46.614;13.888;2024-02-16T10:18:02;5.95;;;5.18;;
47713;SDS011;33475;46.614;13.888;2024-02-16T10:20:29;5.55;;;2.05;;
47713;SDS011;33475;46.614;13.888;2024-02-16T10:23:03;4.07;;;2.53;;
47713;SDS011;33475;46.614;13.888;2024-02-16T10:25:29;3.92;;;2.35;;
47713;SDS011;33475;46.614;13.888;2024-02-16T10:27:56;4.70;;;1.88;;
47713;SDS011;33475;46.614;13.888;2024-02-16T10:30:29;5.57;;;2.33;;
47713;SDS011;33475;46.614;13.888;2024-02-16T10:32:58;2.22;;;1.63;;
47713;SDS011;33475;46.614;13.888;2024-02-16T10:35:25;3.63;;;1.60;;
47713;SDS011;33475;46.614;13.888;2024-02-16T10:37:51;4.43;;;2.40;;
47713;SDS011;33475;46.614;13.888;2024-02-16T10:40:20;2.88;;;2.30;;
47713;SDS011;33475;46.614;13.888;2024-02-16T10:42:52;4.07;;;3.40;;
47713;SDS011;33475;46.614;13.888;2024-02-16T10:45:18;10.90;;;2.35;;
47713;SDS011;33475;46.614;13.888;2024-02-16T10:47:44;3.80;;;2.40;;
47713;SDS011;33475;46.614;13.888;2024-02-16T10:50:10;4.10;;;2.17;;
47713;SDS011;33475;46.614;13.888;2024-02-16T10:52:39;4.28;;;2.58;;
47713;SDS011;33475;46.614;13.888;2024-02-16T10:55:06;7.20;;;2.47;;
47713;SDS011;33475;46.614;13.888;2024-02-16T10:57:35;2.78;;;2.08;;
47713;SDS011;33475;46.614;13.888;2024-02-16T11:00:06;3.20;;;2.08;;
47713;SDS011;33475;46.614;13.888;2024-02-16T11:02:50;3.00;;;1.60;;
47713;SDS011;33475;46.614;13.888;2024-02-16T11:05:18;3.55;;;2.10;;
47713;SDS011;33475;46.614;13.888;2024-02-16T11:07:44;2.65;;;1.85;;
47713;SDS011;33475;46.614;13.888;2024-02-16T11:10:13;2.85;;;2.05;;
47713;SDS011;33475;46.614;13.888;2024-02-16T11:12:42;5.93;;;2.45;;
47713;SDS011;33475;46.614;13.888;2024-02-16T11:15:11;4.20;;;1.42;;
47713;SDS011;33475;46.614;13.888;2024-02-16T11:17:37;4.68;;;2.00;;
47713;SDS011;33475;46.614;13.888;2024-02-16T11:20:04;2.00;;;1.50;;
47713;SDS011;33475;46.614;13.888;2024-02-16T11:22:33;1.48;;;1.23;;
47713;SDS011;33475;46.614;13.888;2024-02-16T11:25:06;2.90;;;1.40;;
47713;SDS011;33475;46.614;13.888;2024-02-16T11:27:32;2.65;;;1.60;;
47713;SDS011;33475;46.614;13.888;2024-02-16T11:29:59;1.58;;;1.40;;
47713;SDS011;33475;46.614;13.888;2024-02-16T11:32:25;3.47;;;2.00;;
47713;SDS011;33475;46.614;13.888;2024-02-16T11:34:51;2.15;;;1.20;;
47713;SDS011;33475;46.614;13.888;2024-02-16T11:37:17;2.33;;;1.40;;
47713;SDS011;33475;46.614;13.888;2024-02-16T11:39:44;2.25;;;1.38;;
47713;SDS011;33475;46.614;13.888;2024-02-16T11:42:12;1.40;;;1.30;;
47713;SDS011;33475;46.614;13.888;2024-02-16T11:44:40;1.70;;;1.50;;
47713;SDS011;33475;46.614;13.888;2024-02-16T11:47:08;2.13;;;1.30;;
47713;SDS011;33475;46.614;13.888;2024-02-16T11:49:40;3.28;;;1.27;;
47713;SDS011;33475;46.614;13.888;2024-02-16T11:52:09;2.45;;;1.42;;
47713;SDS011;33475;46.614;13.888;2024-02-16T11:54:36;1.45;;;0.90;;
47713;SDS011;33475;46.614;13.888;2024-02-16T11:57:03;2.47;;;1.40;;
47713;SDS011;33475;46.614;13.888;2024-02-16T11:59:29;2.92;;;1.40;;
47713;SDS011;33475;46.614;13.888;2024-02-16T12:01:59;6.47;;;1.30;;
47713;SDS011;33475;46.614;13.888;2024-02-16T12:04:26;2.92;;;1.30;;
47713;SDS011;33475;46.614;13.888;2024-02-16T12:06:59;2.15;;;1.10;;
47713;SDS011;33475;46.614;13.888;2024-02-16T12:09:26;2.95;;;1.27;;
47713;SDS011;33475;46.614;13.888;2024-02-16T12:11:53;4.22;;;1.55;;
47713;SDS011;33475;46.614;13.888;2024-02-16T12:14:22;1.10;;;1.00;;
47713;SDS011;33475;46.614;13.888;2024-02-16T12:16:49;1.35;;;1.00;;
47713;SDS011;33475;46.614;13.888;2024-02-16T12:19:16;0.80;;;0.80;;
47713;SDS011;33475;46.614;13.888;2024-02-16T12:21:42;1.50;;;1.17;;
47713;SDS011;33475;46.614;13.888;2024-02-16T12:24:08;1.30;;;0.95;;
47713;SDS011;33475;46.614;13.888;2024-02-16T12:26:35;1.00;;;0.90;;
47713;SDS011;33475;46.614;13.888;2024-02-16T12:29:02;1.40;;;1.00;;
47713;SDS011;33475;46.614;13.888;2024-02-16T12:31:29;3.55;;;0.98;;
47713;SDS011;33475;46.614;13.888;2024-02-16T12:33:56;5.28;;;0.95;;
47713;SDS011;33475;46.614;13.888;2024-02-16T12:36:22;2.85;;;1.10;;
47713;SDS011;33475;46.614;13.888;2024-02-16T12:38:49;2.38;;;0.77;;
47713;SDS011;33475;46.614;13.888;2024-02-16T12:41:15;1.23;;;1.00;;
47713;SDS011;33475;46.614;13.888;2024-02-16T12:43:42;1.30;;;0.90;;
47713;SDS011;33475;46.614;13.888;2024-02-16T12:46:08;1.73;;;1.17;;
47713;SDS011;33475;46.614;13.888;2024-02-16T12:48:34;3.75;;;1.42;;
47713;SDS011;33475;46.614;13.888;2024-02-16T12:51:00;2.15;;;1.08;;
47713;SDS011;33475;46.614;13.888;2024-02-16T12:53:26;3.75;;;0.95;;
47713;SDS011;33475;46.614;13.888;2024-02-16T12:55:56;1.70;;;0.85;;
47713;SDS011;33475;46.614;13.888;2024-02-16T12:58:22;3.33;;;1.00;;
47713;SDS011;33475;46.614;13.888;2024-02-16T13:00:48;1.30;;;0.90;;
47713;SDS011;33475;46.614;13.888;2024-02-16T13:03:14;5.47;;;1.35;;
47713;SDS011;33475;46.614;13.888;2024-02-16T13:05:40;1.33;;;1.00;;
47713;SDS011;33475;46.614;13.888;2024-02-16T13:08:08;2.22;;;1.33;;
47713;SDS011;33475;46.614;13.888;2024-02-16T13:10:34;2.78;;;1.00;;
47713;SDS011;33475;46.614;13.888;2024-02-16T13:13:00;1.98;;;1.15;;
47713;SDS011;33475;46.614;13.888;2024-02-16T13:15:26;5.22;;;1.50;;
47713;SDS011;33475;46.614;13.888;2024-02-16T13:17:52;2.78;;;1.13;;
47713;SDS011;33475;46.614;13.888;2024-02-16T13:20:19;2.63;;;1.05;;
47713;SDS011;33475;46.614;13.888;2024-02-16T13:22:45;1.42;;;1.05;;
47713;SDS011;33475;46.614;13.888;2024-02-16T13:25:11;1.77;;;0.80;;
47713;SDS011;33475;46.614;13.888;2024-02-16T13:27:38;4.45;;;1.27;;
47713;SDS011;33475;46.614;13.888;2024-02-16T13:30:04;2.92;;;1.02;;
47713;SDS011;33475;46.614;13.888;2024-02-16T13:32:32;2.08;;;1.10;;
47713;SDS011;33475;46.614;13.888;2024-02-16T13:34:58;3.80;;;1.10;;
47713;SDS011;33475;46.614;13.888;2024-02-16T13:37:25;2.50;;;1.30;;
47713;SDS011;33475;46.614;13.888;2024-02-16T13:39:51;2.30;;;1.27;;
47713;SDS011;33475;46.614;13.888;2024-02-16T13:42:17;1.50;;;0.98;;
47713;SDS011;33475;46.614;13.888;2024-02-16T13:44:44;1.70;;;1.13;;
47713;SDS011;33475;46.614;13.888;2024-02-16T13:47:11;2.30;;;1.35;;
47713;SDS011;33475;46.614;13.888;2024-02-16T13:49:37;2.47;;;1.40;;
47713;SDS011;33475;46.614;13.888;2024-02-16T13:52:03;5.32;;;1.63;;
47713;SDS011;33475;46.614;13.888;2024-02-16T13:54:29;4.28;;;1.40;;
47713;SDS011;33475;46.614;13.888;2024-02-16T13:56:56;2.08;;;1.42;;
47713;SDS011;33475;46.614;13.888;2024-02-16T13:59:22;2.83;;;1.60;;
47713;SDS011;33475;46.614;13.888;2024-02-16T14:01:48;2.05;;;1.50;;
47713;SDS011;33475;46.614;13.888;2024-02-16T14:04:14;1.65;;;1.30;;
47713;SDS011;33475;46.614;13.888;2024-02-16T14:06:40;2.05;;;1.33;;
47713;SDS011;33475;46.614;13.888;2024-02-16T14:09:07;2.58;;;1.15;;
47713;SDS011;33475;46.614;13.888;2024-02-16T14:11:39;2.80;;;1.30;;
47713;SDS011;33475;46.614;13.888;2024-02-16T14:14:09;1.70;;;1.50;;
47713;SDS011;33475;46.614;13.888;2024-02-16T14:16:35;1.60;;;1.10;;
47713;SDS011;33475;46.614;13.888;2024-02-16T14:19:01;1.92;;;1.48;;
47713;SDS011;33475;46.614;13.888;2024-02-16T14:21:28;2.60;;;1.40;;
47713;SDS011;33475;46.614;13.888;2024-02-16T14:23:54;3.97;;;1.20;;
47713;SDS011;33475;46.614;13.888;2024-02-16T14:26:20;1.50;;;1.20;;
47713;SDS011;33475;46.614;13.888;2024-02-16T14:28:46;2.10;;;1.40;;